sensor_id;sensor_type;location;lat;lon;timestamp;temperature;humidity
19813;DHT22;10066;48.108;11.448;2023-02-10T00:01:01;-3.10;99.90
19813;DHT22;10066;48.108;11.448;2023-02-10T00:03:30;-3.20;99.90
19813;DHT22;10066;48.108;11.448;2023-02-10T00:05:57;-3.30;99.90
19813;DHT22;10066;48.108;11.448;2023-02-10T00:08:24;-3.10;99.90
19813;DHT22;10066;48.108;11.448;2023-02-10T00:10:51;-3.20;99.90
19813;DHT22;10066;48.108;11.448;2023-02-10T00:13:18;-3.10;99.90
19813;DHT22;10066;48.108;11.448;2023-02-10T00:15:47;-3.10;99.90
19813;DHT22;10066;48.108;11.448;2023-02-10T00:18:13;-3.00;99.90
19813;DHT22;10066;48.108;11.448;2023-02-10T00:20:40;-2.80;99.90
19813;DHT22;10066;48.108;11.448;2023-02-10T00:23:07;-3.00;99.90
19813;DHT22;10066;48.108;11.448;2023-02-10T00:25:35;-3.00;99.90
19813;DHT22;10066;48.108;11.448;2023-02-10T00:28:02;-3.00;99.90
19813;DHT22;10066;48.108;11.448;2023-02-10T00:30:29;-3.20;99.90
19813;DHT22;10066;48.108;11.448;2023-02-10T00:32:58;-3.10;99.90
19813;DHT22;10066;48.108;11.448;2023-02-10T00:35:25;-3.10;99.90
19813;DHT22;10066;48.108;11.448;2023-02-10T00:37:52;-3.20;99.90
19813;DHT22;10066;48.108;11.448;2023-02-10T00:40:19;-3.30;99.90
19813;DHT22;10066;48.108;11.448;2023-02-10T00:42:46;-3.20;99.90
19813;DHT22;10066;48.108;11.448;2023-02-10T00:45:12;-3.20;99.90
19813;DHT22;10066;48.108;11.448;2023-02-10T00:47:40;-3.10;99.90
19813;DHT22;10066;48.108;11.448;2023-02-10T00:50:08;-3.10;99.90
19813;DHT22;10066;48.108;11.448;2023-02-10T00:52:35;-3.00;99.90
19813;DHT22;10066;48.108;11.448;2023-02-10T00:55:04;-2.80;99.90
19813;DHT22;10066;48.108;11.448;2023-02-10T00:57:31;-2.90;99.90
19813;DHT22;10066;48.108;11.448;2023-02-10T00:59:58;-3.00;99.90
19813;DHT22;10066;48.108;11.448;2023-02-10T01:02:25;-2.90;99.90
19813;DHT22;10066;48.108;11.448;2023-02-10T01:04:51;-2.90;99.90
19813;DHT22;10066;48.108;11.448;2023-02-10T01:07:20;-2.90;99.90
19813;DHT22;10066;48.108;11.448;2023-02-10T01:09:47;-3.00;99.90
19813;DHT22;10066;48.108;11.448;2023-02-10T01:12:14;-2.90;99.90
19813;DHT22;10066;48.108;11.448;2023-02-10T01:14:41;-3.00;99.90
19813;DHT22;10066;48.108;11.448;2023-02-10T01:17:08;-2.90;99.90
19813;DHT22;10066;48.108;11.448;2023-02-10T01:19:35;-3.00;99.90
19813;DHT22;10066;48.108;11.448;2023-02-10T01:22:02;-2.90;99.90
19813;DHT22;10066;48.108;11.448;2023-02-10T01:24:31;-3.10;99.90
19813;DHT22;10066;48.108;11.448;2023-02-10T01:26:57;-2.90;99.90
19813;DHT22;10066;48.108;11.448;2023-02-10T01:29:24;-3.00;99.90
19813;DHT22;10066;48.108;11.448;2023-02-10T01:31:51;-2.90;99.90
19813;DHT22;10066;48.108;11.448;2023-02-10T01:34:18;-2.90;99.90
19813;DHT22;10066;48.108;11.448;2023-02-10T01:36:45;-2.90;99.90
19813;DHT22;10066;48.108;11.448;2023-02-10T01:39:12;-3.00;99.90
19813;DHT22;10066;48.108;11.448;2023-02-10T01:41:40;-2.90;99.90
19813;DHT22;10066;48.108;11.448;2023-02-10T01:47:13;-2.90;99.90
19813;DHT22;10066;48.108;11.448;2023-02-10T01:49:45;-3.00;99.90
19813;DHT22;10066;48.108;11.448;2023-02-10T01:52:16;-3.00;99.90
19813;DHT22;10066;48.108;11.448;2023-02-10T01:54:47;-2.90;99.90
19813;DHT22;10066;48.108;11.448;2023-02-10T01:57:16;-3.00;99.90
19813;DHT22;10066;48.108;11.448;2023-02-10T01:59:44;-2.90;99.90
19813;DHT22;10066;48.108;11.448;2023-02-10T02:02:12;-3.00;99.90
19813;DHT22;10066;48.108;11.448;2023-02-10T02:04:44;-3.00;99.90
19813;DHT22;10066;48.108;11.448;2023-02-10T02:07:13;-3.10;99.90
19813;DHT22;10066;48.108;11.448;2023-02-10T02:09:40;-3.00;99.90
19813;DHT22;10066;48.108;11.448;2023-02-10T02:12:16;-3.10;99.90
19813;DHT22;10066;48.108;11.448;2023-02-10T02:14:53;-3.00;99.90
19813;DHT22;10066;48.108;11.448;2023-02-10T02:17:27;-2.90;99.90
19813;DHT22;10066;48.108;11.448;2023-02-10T02:20:23;-3.00;99.90
19813;DHT22;10066;48.108;11.448;2023-02-10T02:23:28;-2.90;99.90
19813;DHT22;10066;48.108;11.448;2023-02-10T02:32:11;-2.90;99.90
19813;DHT22;10066;48.108;11.448;2023-02-10T02:34:42;-3.10;99.90
19813;DHT22;10066;48.108;11.448;2023-02-10T02:37:16;-3.10;99.90
19813;DHT22;10066;48.108;11.448;2023-02-10T02:39:43;-3.20;99.90
19813;DHT22;10066;48.108;11.448;2023-02-10T02:42:19;-3.20;99.90
19813;DHT22;10066;48.108;11.448;2023-02-10T02:44:50;-3.30;99.90
19813;DHT22;10066;48.108;11.448;2023-02-10T02:47:34;-3.20;99.90
19813;DHT22;10066;48.108;11.448;2023-02-10T02:50:15;-3.30;99.90
19813;DHT22;10066;48.108;11.448;2023-02-10T02:52:56;-3.10;99.90
19813;DHT22;10066;48.108;11.448;2023-02-10T02:55:31;-3.20;99.90
19813;DHT22;10066;48.108;11.448;2023-02-10T02:58:07;-3.30;99.90
19813;DHT22;10066;48.108;11.448;2023-02-10T03:00:38;-3.30;99.90
19813;DHT22;10066;48.108;11.448;2023-02-10T03:03:08;-3.10;99.90
19813;DHT22;10066;48.108;11.448;2023-02-10T03:05:35;-3.30;99.90
19813;DHT22;10066;48.108;11.448;2023-02-10T03:08:03;-3.20;99.90
19813;DHT22;10066;48.108;11.448;2023-02-10T03:10:30;-3.30;99.90
19813;DHT22;10066;48.108;11.448;2023-02-10T03:12:57;-3.20;99.90
19813;DHT22;10066;48.108;11.448;2023-02-10T03:15:24;-3.20;99.90
19813;DHT22;10066;48.108;11.448;2023-02-10T03:17:51;-3.40;99.90
19813;DHT22;10066;48.108;11.448;2023-02-10T03:20:19;-3.30;99.90
19813;DHT22;10066;48.108;11.448;2023-02-10T03:22:46;-3.40;99.90
19813;DHT22;10066;48.108;11.448;2023-02-10T03:25:13;-3.40;99.90
19813;DHT22;10066;48.108;11.448;2023-02-10T03:27:40;-3.30;99.90
19813;DHT22;10066;48.108;11.448;2023-02-10T03:30:08;-3.20;99.90
19813;DHT22;10066;48.108;11.448;2023-02-10T03:32:35;-3.30;99.90
19813;DHT22;10066;48.108;11.448;2023-02-10T03:35:05;-3.40;99.90
19813;DHT22;10066;48.108;11.448;2023-02-10T03:37:33;-3.30;99.90
19813;DHT22;10066;48.108;11.448;2023-02-10T03:40:00;-3.00;99.90
19813;DHT22;10066;48.108;11.448;2023-02-10T03:42:27;-3.40;99.90
19813;DHT22;10066;48.108;11.448;2023-02-10T03:44:53;-3.40;99.90
19813;DHT22;10066;48.108;11.448;2023-02-10T03:47:20;-3.30;99.90
19813;DHT22;10066;48.108;11.448;2023-02-10T03:49:47;-3.40;99.90
19813;DHT22;10066;48.108;11.448;2023-02-10T03:52:14;-3.40;99.90
19813;DHT22;10066;48.108;11.448;2023-02-10T03:54:42;-3.50;99.90
19813;DHT22;10066;48.108;11.448;2023-02-10T03:57:10;-3.50;99.90
19813;DHT22;10066;48.108;11.448;2023-02-10T03:59:37;-3.50;99.90
19813;DHT22;10066;48.108;11.448;2023-02-10T04:02:04;-3.30;99.90
19813;DHT22;10066;48.108;11.448;2023-02-10T04:04:31;-3.50;99.90
19813;DHT22;10066;48.108;11.448;2023-02-10T04:06:58;-3.40;99.90
19813;DHT22;10066;48.108;11.448;2023-02-10T04:09:25;-3.40;99.90
19813;DHT22;10066;48.108;11.448;2023-02-10T04:11:54;-3.60;99.90
19813;DHT22;10066;48.108;11.448;2023-02-10T04:14:21;-3.50;99.90
19813;DHT22;10066;48.108;11.448;2023-02-10T04:16:48;-3.40;99.90
19813;DHT22;10066;48.108;11.448;2023-02-10T04:19:15;-3.70;99.90
19813;DHT22;10066;48.108;11.448;2023-02-10T04:21:43;-3.60;99.90
19813;DHT22;10066;48.108;11.448;2023-02-10T04:24:10;-3.70;99.90
19813;DHT22;10066;48.108;11.448;2023-02-10T04:26:37;-3.70;99.90
19813;DHT22;10066;48.108;11.448;2023-02-10T04:29:05;-3.70;99.90
19813;DHT22;10066;48.108;11.448;2023-02-10T04:31:32;-2.70;99.90
19813;DHT22;10066;48.108;11.448;2023-02-10T04:33:59;-3.70;99.90
19813;DHT22;10066;48.108;11.448;2023-02-10T04:36:26;-3.80;99.90
19813;DHT22;10066;48.108;11.448;2023-02-10T04:38:53;-3.60;99.90
19813;DHT22;10066;48.108;11.448;2023-02-10T04:41:20;-3.70;99.90
19813;DHT22;10066;48.108;11.448;2023-02-10T04:43:47;-3.70;99.90
19813;DHT22;10066;48.108;11.448;2023-02-10T04:46:16;-3.60;99.90
19813;DHT22;10066;48.108;11.448;2023-02-10T04:48:43;-3.70;99.90
19813;DHT22;10066;48.108;11.448;2023-02-10T04:51:12;-3.60;99.90
19813;DHT22;10066;48.108;11.448;2023-02-10T04:53:40;-3.60;99.90
19813;DHT22;10066;48.108;11.448;2023-02-10T04:56:10;-3.50;99.90
19813;DHT22;10066;48.108;11.448;2023-02-10T04:58:37;-3.10;99.90
19813;DHT22;10066;48.108;11.448;2023-02-10T05:01:04;-3.40;99.90
19813;DHT22;10066;48.108;11.448;2023-02-10T05:03:32;-3.50;99.90
19813;DHT22;10066;48.108;11.448;2023-02-10T05:06:06;-3.40;99.90
19813;DHT22;10066;48.108;11.448;2023-02-10T05:08:33;-3.70;99.90
19813;DHT22;10066;48.108;11.448;2023-02-10T05:11:01;-3.60;99.90
19813;DHT22;10066;48.108;11.448;2023-02-10T05:13:28;-3.60;99.90
19813;DHT22;10066;48.108;11.448;2023-02-10T05:15:55;-3.50;99.90
19813;DHT22;10066;48.108;11.448;2023-02-10T05:18:22;-3.60;99.90
19813;DHT22;10066;48.108;11.448;2023-02-10T05:20:51;-3.60;99.90
19813;DHT22;10066;48.108;11.448;2023-02-10T05:23:18;-3.60;99.90
19813;DHT22;10066;48.108;11.448;2023-02-10T05:25:46;-3.50;99.90
19813;DHT22;10066;48.108;11.448;2023-02-10T05:28:16;-3.70;99.90
19813;DHT22;10066;48.108;11.448;2023-02-10T05:30:43;-3.70;99.90
19813;DHT22;10066;48.108;11.448;2023-02-10T05:33:10;-3.60;99.90
19813;DHT22;10066;48.108;11.448;2023-02-10T05:35:37;-3.60;99.90
19813;DHT22;10066;48.108;11.448;2023-02-10T05:38:05;-3.60;99.90
19813;DHT22;10066;48.108;11.448;2023-02-10T05:40:32;-3.50;99.90
19813;DHT22;10066;48.108;11.448;2023-02-10T05:42:59;-3.40;99.90
19813;DHT22;10066;48.108;11.448;2023-02-10T05:45:26;-3.70;99.90
19813;DHT22;10066;48.108;11.448;2023-02-10T05:47:53;-3.60;99.90
19813;DHT22;10066;48.108;11.448;2023-02-10T05:50:20;-3.80;99.90
19813;DHT22;10066;48.108;11.448;2023-02-10T05:52:47;-3.80;99.90
19813;DHT22;10066;48.108;11.448;2023-02-10T05:55:15;-4.00;99.90
19813;DHT22;10066;48.108;11.448;2023-02-10T05:57:42;-3.90;99.90
19813;DHT22;10066;48.108;11.448;2023-02-10T06:00:10;-3.90;99.90
19813;DHT22;10066;48.108;11.448;2023-02-10T06:02:37;-4.00;99.90
19813;DHT22;10066;48.108;11.448;2023-02-10T06:05:05;-4.00;99.90
19813;DHT22;10066;48.108;11.448;2023-02-10T06:07:32;-3.90;99.90
19813;DHT22;10066;48.108;11.448;2023-02-10T06:09:59;-4.20;99.90
19813;DHT22;10066;48.108;11.448;2023-02-10T06:12:27;-3.90;99.90
19813;DHT22;10066;48.108;11.448;2023-02-10T06:14:54;-3.90;99.90
19813;DHT22;10066;48.108;11.448;2023-02-10T06:17:21;-3.90;99.90
19813;DHT22;10066;48.108;11.448;2023-02-10T06:19:48;-3.80;99.90
19813;DHT22;10066;48.108;11.448;2023-02-10T06:22:15;-4.00;99.90
19813;DHT22;10066;48.108;11.448;2023-02-10T06:24:42;-3.90;99.90
19813;DHT22;10066;48.108;11.448;2023-02-10T06:27:09;-3.80;99.90
19813;DHT22;10066;48.108;11.448;2023-02-10T06:29:37;-3.80;99.90
19813;DHT22;10066;48.108;11.448;2023-02-10T06:32:04;-3.90;99.90
19813;DHT22;10066;48.108;11.448;2023-02-10T06:34:31;-3.90;99.90
19813;DHT22;10066;48.108;11.448;2023-02-10T06:36:58;-3.80;99.90
19813;DHT22;10066;48.108;11.448;2023-02-10T06:39:25;-3.70;99.90
19813;DHT22;10066;48.108;11.448;2023-02-10T06:41:52;-4.10;99.90
19813;DHT22;10066;48.108;11.448;2023-02-10T06:44:19;-3.80;99.90
19813;DHT22;10066;48.108;11.448;2023-02-10T06:46:47;-3.80;99.90
19813;DHT22;10066;48.108;11.448;2023-02-10T06:49:15;-3.70;99.90
19813;DHT22;10066;48.108;11.448;2023-02-10T06:51:41;-3.70;99.90
19813;DHT22;10066;48.108;11.448;2023-02-10T06:54:08;-3.80;99.90
19813;DHT22;10066;48.108;11.448;2023-02-10T06:56:35;-3.50;99.90
19813;DHT22;10066;48.108;11.448;2023-02-10T06:59:02;-3.50;99.90
19813;DHT22;10066;48.108;11.448;2023-02-10T07:01:29;-3.30;99.90
19813;DHT22;10066;48.108;11.448;2023-02-10T07:03:57;-3.40;99.90
19813;DHT22;10066;48.108;11.448;2023-02-10T07:06:24;-3.40;99.90
19813;DHT22;10066;48.108;11.448;2023-02-10T07:08:51;-3.20;99.90
19813;DHT22;10066;48.108;11.448;2023-02-10T07:11:18;-3.20;99.90
19813;DHT22;10066;48.108;11.448;2023-02-10T07:13:47;-3.40;99.90
19813;DHT22;10066;48.108;11.448;2023-02-10T07:16:14;-3.40;99.90
19813;DHT22;10066;48.108;11.448;2023-02-10T07:18:42;-3.20;99.90
19813;DHT22;10066;48.108;11.448;2023-02-10T07:21:10;-3.10;99.90
19813;DHT22;10066;48.108;11.448;2023-02-10T07:23:37;-2.90;99.90
19813;DHT22;10066;48.108;11.448;2023-02-10T07:26:05;-2.90;99.90
19813;DHT22;10066;48.108;11.448;2023-02-10T07:28:32;-3.00;99.90
19813;DHT22;10066;48.108;11.448;2023-02-10T07:30:59;-2.70;99.90
19813;DHT22;10066;48.108;11.448;2023-02-10T07:33:26;-2.90;99.90
19813;DHT22;10066;48.108;11.448;2023-02-10T07:35:53;-3.00;99.90
19813;DHT22;10066;48.108;11.448;2023-02-10T07:38:22;-2.90;99.90
19813;DHT22;10066;48.108;11.448;2023-02-10T07:40:49;-2.60;99.90
19813;DHT22;10066;48.108;11.448;2023-02-10T07:43:16;-2.70;99.90
19813;DHT22;10066;48.108;11.448;2023-02-10T07:45:43;-2.50;99.90
19813;DHT22;10066;48.108;11.448;2023-02-10T07:48:10;-2.60;99.90
19813;DHT22;10066;48.108;11.448;2023-02-10T07:50:36;-2.50;99.90
19813;DHT22;10066;48.108;11.448;2023-02-10T07:53:03;-2.40;99.90
19813;DHT22;10066;48.108;11.448;2023-02-10T07:55:32;-2.30;99.90
19813;DHT22;10066;48.108;11.448;2023-02-10T07:57:59;-2.40;99.90
19813;DHT22;10066;48.108;11.448;2023-02-10T08:00:26;-2.30;99.90
19813;DHT22;10066;48.108;11.448;2023-02-10T08:02:52;-2.20;99.90
19813;DHT22;10066;48.108;11.448;2023-02-10T08:05:19;-2.10;99.90
19813;DHT22;10066;48.108;11.448;2023-02-10T08:07:46;-1.90;99.90
19813;DHT22;10066;48.108;11.448;2023-02-10T08:10:13;-1.80;99.90
19813;DHT22;10066;48.108;11.448;2023-02-10T08:12:42;-1.90;99.90
19813;DHT22;10066;48.108;11.448;2023-02-10T08:15:09;-1.80;99.90
19813;DHT22;10066;48.108;11.448;2023-02-10T08:17:35;-1.70;99.90
19813;DHT22;10066;48.108;11.448;2023-02-10T08:20:04;-1.50;99.90
19813;DHT22;10066;48.108;11.448;2023-02-10T08:22:31;-1.30;99.90
19813;DHT22;10066;48.108;11.448;2023-02-10T08:25:00;-1.10;99.90
19813;DHT22;10066;48.108;11.448;2023-02-10T08:27:26;-1.00;99.90
19813;DHT22;10066;48.108;11.448;2023-02-10T08:29:55;-1.10;99.90
19813;DHT22;10066;48.108;11.448;2023-02-10T08:32:22;-0.30;99.90
19813;DHT22;10066;48.108;11.448;2023-02-10T08:34:50;-0.80;99.90
19813;DHT22;10066;48.108;11.448;2023-02-10T08:37:17;-0.60;99.90
19813;DHT22;10066;48.108;11.448;2023-02-10T08:39:45;-0.40;99.90
19813;DHT22;10066;48.108;11.448;2023-02-10T08:42:11;-0.30;99.90
19813;DHT22;10066;48.108;11.448;2023-02-10T08:44:38;-0.20;99.90
19813;DHT22;10066;48.108;11.448;2023-02-10T08:47:07;0.10;99.90
19813;DHT22;10066;48.108;11.448;2023-02-10T08:49:36;0.20;99.90
19813;DHT22;10066;48.108;11.448;2023-02-10T08:52:04;0.10;99.90
19813;DHT22;10066;48.108;11.448;2023-02-10T08:54:31;0.20;99.90
19813;DHT22;10066;48.108;11.448;2023-02-10T08:56:58;0.80;99.90
19813;DHT22;10066;48.108;11.448;2023-02-10T08:59:26;0.60;99.90
19813;DHT22;10066;48.108;11.448;2023-02-10T09:01:53;0.50;99.90
19813;DHT22;10066;48.108;11.448;2023-02-10T09:04:22;0.80;99.90
19813;DHT22;10066;48.108;11.448;2023-02-10T09:06:49;0.90;99.90
19813;DHT22;10066;48.108;11.448;2023-02-10T09:09:19;1.10;99.90
19813;DHT22;10066;48.108;11.448;2023-02-10T09:11:48;2.10;99.90
19813;DHT22;10066;48.108;11.448;2023-02-10T09:14:15;1.90;99.90
19813;DHT22;10066;48.108;11.448;2023-02-10T09:16:41;1.50;99.90
19813;DHT22;10066;48.108;11.448;2023-02-10T09:19:09;1.80;99.90
19813;DHT22;10066;48.108;11.448;2023-02-10T09:21:37;1.90;99.90
19813;DHT22;10066;48.108;11.448;2023-02-10T09:24:05;2.10;99.90
19813;DHT22;10066;48.108;11.448;2023-02-10T09:26:32;2.20;99.90
19813;DHT22;10066;48.108;11.448;2023-02-10T09:28:59;2.20;99.90
19813;DHT22;10066;48.108;11.448;2023-02-10T09:31:26;2.40;99.90
19813;DHT22;10066;48.108;11.448;2023-02-10T09:33:52;2.20;99.90
19813;DHT22;10066;48.108;11.448;2023-02-10T09:36:20;2.40;99.90
19813;DHT22;10066;48.108;11.448;2023-02-10T09:38:48;2.40;99.90
19813;DHT22;10066;48.108;11.448;2023-02-10T09:41:26;2.50;99.90
19813;DHT22;10066;48.108;11.448;2023-02-10T09:44:05;2.60;99.90
19813;DHT22;10066;48.108;11.448;2023-02-10T09:49:43;2.80;99.90
19813;DHT22;10066;48.108;11.448;2023-02-10T09:52:18;3.00;99.90
19813;DHT22;10066;48.108;11.448;2023-02-10T09:54:50;3.10;99.90
19813;DHT22;10066;48.108;11.448;2023-02-10T09:57:21;2.90;99.90
19813;DHT22;10066;48.108;11.448;2023-02-10T09:59:51;3.00;99.90
19813;DHT22;10066;48.108;11.448;2023-02-10T10:02:24;3.10;99.90
19813;DHT22;10066;48.108;11.448;2023-02-10T10:04:53;3.40;99.90
19813;DHT22;10066;48.108;11.448;2023-02-10T10:07:25;3.40;99.90
19813;DHT22;10066;48.108;11.448;2023-02-10T10:09:59;3.40;99.90
19813;DHT22;10066;48.108;11.448;2023-02-10T10:12:27;3.60;99.90
19813;DHT22;10066;48.108;11.448;2023-02-10T10:14:54;3.50;99.90
19813;DHT22;10066;48.108;11.448;2023-02-10T10:17:35;3.60;99.90
19813;DHT22;10066;48.108;11.448;2023-02-10T10:23:11;3.60;99.90
19813;DHT22;10066;48.108;11.448;2023-02-10T10:26:06;3.70;99.90
19813;DHT22;10066;48.108;11.448;2023-02-10T10:28:44;3.80;99.90
19813;DHT22;10066;48.108;11.448;2023-02-10T10:31:17;3.80;99.90
19813;DHT22;10066;48.108;11.448;2023-02-10T10:33:50;4.00;99.90
19813;DHT22;10066;48.108;11.448;2023-02-10T10:36:19;3.90;99.90
19813;DHT22;10066;48.108;11.448;2023-02-10T10:38:51;4.50;99.90
19813;DHT22;10066;48.108;11.448;2023-02-10T10:41:23;4.10;99.90
19813;DHT22;10066;48.108;11.448;2023-02-10T10:43:52;4.20;99.90
19813;DHT22;10066;48.108;11.448;2023-02-10T10:46:23;4.20;99.90
19813;DHT22;10066;48.108;11.448;2023-02-10T10:48:54;4.20;99.90
19813;DHT22;10066;48.108;11.448;2023-02-10T10:51:21;4.20;99.90
19813;DHT22;10066;48.108;11.448;2023-02-10T10:53:49;4.20;99.90
19813;DHT22;10066;48.108;11.448;2023-02-10T10:56:26;4.10;99.90
19813;DHT22;10066;48.108;11.448;2023-02-10T10:58:55;4.20;99.90
19813;DHT22;10066;48.108;11.448;2023-02-10T11:01:32;4.20;99.90
19813;DHT22;10066;48.108;11.448;2023-02-10T11:04:05;4.30;99.90
19813;DHT22;10066;48.108;11.448;2023-02-10T11:06:34;4.40;99.90
19813;DHT22;10066;48.108;11.448;2023-02-10T11:09:04;4.30;99.90
19813;DHT22;10066;48.108;11.448;2023-02-10T11:11:36;4.40;99.90
19813;DHT22;10066;48.108;11.448;2023-02-10T11:14:13;4.50;99.90
19813;DHT22;10066;48.108;11.448;2023-02-10T11:16:42;4.50;99.90
19813;DHT22;10066;48.108;11.448;2023-02-10T11:19:18;4.60;99.90
19813;DHT22;10066;48.108;11.448;2023-02-10T11:21:46;4.50;99.90
19813;DHT22;10066;48.108;11.448;2023-02-10T11:24:20;4.60;99.90
19813;DHT22;10066;48.108;11.448;2023-02-10T11:26:57;4.80;99.90
19813;DHT22;10066;48.108;11.448;2023-02-10T11:29:24;4.70;99.90
19813;DHT22;10066;48.108;11.448;2023-02-10T11:31:52;4.70;99.90
19813;DHT22;10066;48.108;11.448;2023-02-10T11:34:21;4.80;99.90
19813;DHT22;10066;48.108;11.448;2023-02-10T11:36:50;4.90;99.90
19813;DHT22;10066;48.108;11.448;2023-02-10T11:39:22;4.80;99.90
19813;DHT22;10066;48.108;11.448;2023-02-10T11:41:50;4.90;99.90
19813;DHT22;10066;48.108;11.448;2023-02-10T11:44:25;4.80;99.90
19813;DHT22;10066;48.108;11.448;2023-02-10T11:46:57;4.80;99.90
19813;DHT22;10066;48.108;11.448;2023-02-10T11:49:25;4.70;99.90
19813;DHT22;10066;48.108;11.448;2023-02-10T11:51:57;4.80;99.90
19813;DHT22;10066;48.108;11.448;2023-02-10T11:54:25;4.70;99.30
19813;DHT22;10066;48.108;11.448;2023-02-10T11:57:02;4.80;99.90
19813;DHT22;10066;48.108;11.448;2023-02-10T11:59:56;5.00;99.90
19813;DHT22;10066;48.108;11.448;2023-02-10T12:02:34;5.10;99.90
19813;DHT22;10066;48.108;11.448;2023-02-10T12:05:13;5.00;99.80
19813;DHT22;10066;48.108;11.448;2023-02-10T12:08:04;5.20;99.90
19813;DHT22;10066;48.108;11.448;2023-02-10T12:10:39;5.10;99.90
19813;DHT22;10066;48.108;11.448;2023-02-10T12:13:15;5.20;99.90
19813;DHT22;10066;48.108;11.448;2023-02-10T12:15:52;5.30;99.70
19813;DHT22;10066;48.108;11.448;2023-02-10T12:18:37;5.40;98.70
19813;DHT22;10066;48.108;11.448;2023-02-10T12:21:16;5.30;98.70
19813;DHT22;10066;48.108;11.448;2023-02-10T12:23:59;5.30;98.80
19813;DHT22;10066;48.108;11.448;2023-02-10T12:26:33;5.40;98.40
19813;DHT22;10066;48.108;11.448;2023-02-10T12:29:14;5.50;98.00
19813;DHT22;10066;48.108;11.448;2023-02-10T12:31:53;5.40;98.30
19813;DHT22;10066;48.108;11.448;2023-02-10T12:34:37;5.50;97.10
19813;DHT22;10066;48.108;11.448;2023-02-10T12:37:16;5.30;96.90
19813;DHT22;10066;48.108;11.448;2023-02-10T12:39:51;5.40;97.20
19813;DHT22;10066;48.108;11.448;2023-02-10T12:42:33;5.40;96.50
19813;DHT22;10066;48.108;11.448;2023-02-10T12:45:11;5.40;97.30
19813;DHT22;10066;48.108;11.448;2023-02-10T12:47:48;5.60;96.60
19813;DHT22;10066;48.108;11.448;2023-02-10T12:50:35;5.50;95.90
19813;DHT22;10066;48.108;11.448;2023-02-10T12:53:10;5.60;96.10
19813;DHT22;10066;48.108;11.448;2023-02-10T12:55:44;5.70;94.90
19813;DHT22;10066;48.108;11.448;2023-02-10T12:58:18;5.60;94.90
19813;DHT22;10066;48.108;11.448;2023-02-10T13:00:49;5.80;95.00
19813;DHT22;10066;48.108;11.448;2023-02-10T13:03:21;5.90;94.80
19813;DHT22;10066;48.108;11.448;2023-02-10T13:05:54;6.00;94.60
19813;DHT22;10066;48.108;11.448;2023-02-10T13:08:29;5.80;92.70
19813;DHT22;10066;48.108;11.448;2023-02-10T13:11:01;5.80;94.00
19813;DHT22;10066;48.108;11.448;2023-02-10T13:13:30;5.90;93.30
19813;DHT22;10066;48.108;11.448;2023-02-10T13:16:05;6.20;93.20
19813;DHT22;10066;48.108;11.448;2023-02-10T13:18:40;5.90;93.20
19813;DHT22;10066;48.108;11.448;2023-02-10T13:21:16;5.90;93.60
19813;DHT22;10066;48.108;11.448;2023-02-10T13:23:47;6.10;92.80
19813;DHT22;10066;48.108;11.448;2023-02-10T13:26:27;6.00;92.40
19813;DHT22;10066;48.108;11.448;2023-02-10T13:29:06;5.80;92.00
19813;DHT22;10066;48.108;11.448;2023-02-10T13:31:48;5.70;92.40
19813;DHT22;10066;48.108;11.448;2023-02-10T13:34:22;5.60;92.90
19813;DHT22;10066;48.108;11.448;2023-02-10T13:36:55;5.50;93.20
19813;DHT22;10066;48.108;11.448;2023-02-10T13:39:24;5.40;93.00
19813;DHT22;10066;48.108;11.448;2023-02-10T13:42:06;5.30;93.20
19813;DHT22;10066;48.108;11.448;2023-02-10T13:44:34;5.30;93.20
19813;DHT22;10066;48.108;11.448;2023-02-10T13:47:19;5.20;93.30
19813;DHT22;10066;48.108;11.448;2023-02-10T13:49:55;5.20;93.30
19813;DHT22;10066;48.108;11.448;2023-02-10T13:52:25;5.10;93.00
19813;DHT22;10066;48.108;11.448;2023-02-10T13:54:55;5.00;92.90
19813;DHT22;10066;48.108;11.448;2023-02-10T13:57:28;4.90;92.50
19813;DHT22;10066;48.108;11.448;2023-02-10T14:00:15;4.90;93.10
19813;DHT22;10066;48.108;11.448;2023-02-10T14:02:43;4.90;93.10
19813;DHT22;10066;48.108;11.448;2023-02-10T14:05:36;4.90;93.20
19813;DHT22;10066;48.108;11.448;2023-02-10T14:08:13;4.90;93.40
19813;DHT22;10066;48.108;11.448;2023-02-10T14:10:40;4.90;93.20
19813;DHT22;10066;48.108;11.448;2023-02-10T14:13:22;4.90;93.20
19813;DHT22;10066;48.108;11.448;2023-02-10T14:15:57;4.90;92.70
19813;DHT22;10066;48.108;11.448;2023-02-10T14:18:25;4.80;92.50
19813;DHT22;10066;48.108;11.448;2023-02-10T14:20:59;4.80;92.00
19813;DHT22;10066;48.108;11.448;2023-02-10T14:23:29;4.80;92.30
19813;DHT22;10066;48.108;11.448;2023-02-10T14:25:58;4.80;92.30
19813;DHT22;10066;48.108;11.448;2023-02-10T14:28:28;4.90;92.20
19813;DHT22;10066;48.108;11.448;2023-02-10T14:30:57;4.90;91.60
19813;DHT22;10066;48.108;11.448;2023-02-10T14:33:27;4.90;92.10
19813;DHT22;10066;48.108;11.448;2023-02-10T14:35:55;4.90;92.30
19813;DHT22;10066;48.108;11.448;2023-02-10T14:38:26;4.90;92.20
19813;DHT22;10066;48.108;11.448;2023-02-10T14:40:54;4.90;92.60
19813;DHT22;10066;48.108;11.448;2023-02-10T14:43:25;4.90;92.80
19813;DHT22;10066;48.108;11.448;2023-02-10T14:45:53;4.90;92.60
19813;DHT22;10066;48.108;11.448;2023-02-10T14:48:21;4.90;92.60
19813;DHT22;10066;48.108;11.448;2023-02-10T14:51:06;4.80;92.40
19813;DHT22;10066;48.108;11.448;2023-02-10T14:53:36;4.80;92.00
19813;DHT22;10066;48.108;11.448;2023-02-10T14:56:18;4.80;92.20
19813;DHT22;10066;48.108;11.448;2023-02-10T14:58:46;4.70;91.70
19813;DHT22;10066;48.108;11.448;2023-02-10T15:01:18;4.70;92.30
19813;DHT22;10066;48.108;11.448;2023-02-10T15:03:46;4.70;91.90
19813;DHT22;10066;48.108;11.448;2023-02-10T15:06:16;4.60;92.10
19813;DHT22;10066;48.108;11.448;2023-02-10T15:08:47;4.70;92.40
19813;DHT22;10066;48.108;11.448;2023-02-10T15:11:20;4.70;92.50
19813;DHT22;10066;48.108;11.448;2023-02-10T15:14:02;4.60;92.50
19813;DHT22;10066;48.108;11.448;2023-02-10T15:16:31;4.60;92.80
19813;DHT22;10066;48.108;11.448;2023-02-10T15:18:57;4.60;93.00
19813;DHT22;10066;48.108;11.448;2023-02-10T15:21:30;4.60;93.20
19813;DHT22;10066;48.108;11.448;2023-02-10T15:23:59;4.50;93.20
19813;DHT22;10066;48.108;11.448;2023-02-10T15:26:27;4.50;93.40
19813;DHT22;10066;48.108;11.448;2023-02-10T15:29:05;4.50;93.60
19813;DHT22;10066;48.108;11.448;2023-02-10T15:31:35;4.50;93.50
19813;DHT22;10066;48.108;11.448;2023-02-10T15:34:03;4.40;93.60
19813;DHT22;10066;48.108;11.448;2023-02-10T15:36:45;4.40;93.60
19813;DHT22;10066;48.108;11.448;2023-02-10T15:39:21;4.30;93.60
19813;DHT22;10066;48.108;11.448;2023-02-10T15:42:04;4.30;94.00
19813;DHT22;10066;48.108;11.448;2023-02-10T15:44:37;4.30;94.60
19813;DHT22;10066;48.108;11.448;2023-02-10T15:47:42;4.50;95.00
19813;DHT22;10066;48.108;11.448;2023-02-10T15:50:10;4.40;94.90
19813;DHT22;10066;48.108;11.448;2023-02-10T15:52:40;4.30;95.20
19813;DHT22;10066;48.108;11.448;2023-02-10T15:55:18;4.20;95.50
19813;DHT22;10066;48.108;11.448;2023-02-10T15:57:46;4.20;95.80